Athina L — A8YS8 — position and weather

sailwx.info

Track history (hours):
 
Tides and Currents Weather Stations Pressure Air Temp Water Temp Dewpoint Dewpoint Depression Visibility Wind Speed Wind Dir Waves Ship Positions

Athina L

Last reported at 2017-Oct-23 21:16 UTC. Time now 2017-Nov-18 04:41 UTC.
Position S 33°04' W 071°52'.
Warning: this ship's position is 25 days out of date.

Length 229 m; draft 7.9 m.

Type: Cargo ship. MMSI: 636015124.

Date/timePositionNaut miles runAvg speedWind from/ knotsBaromVisibWave heightAir tempDewpointWater temp
2017-Oct-23 21:16S 33°04' W 071°52'512.0
2017-Oct-23 20:48S 33°01' W 071°46'411.7
2017-Oct-23 20:27S 32°59' W 071°42'510.7
2017-Oct-23 20:00S 32°58' W 071°36'3 1.8
2017-Oct-23 18:18S 33°01' W 071°35'0 0.0
2017-Oct-23 17:03S 33°01' W 071°35'0 0.1
2017-Oct-23 16:45S 33°01' W 071°35'0 0.0
2017-Oct-23 16:24S 33°01' W 071°35'0 0.0
2017-Oct-23 16:00S 33°01' W 071°35'0 0.1
2017-Oct-23 12:13S 33°01' W 071°35'0 1.7
2017-Oct-23 11:59S 33°01' W 071°35'0 0.6
2017-Oct-23 11:07S 33°01' W 071°35'0 0.1
2017-Oct-23 10:58S 33°01' W 071°35'0 0.0
2017-Oct-23 10:28S 33°01' W 071°35'0 0.0
2017-Oct-23 09:58S 33°01' W 071°35'0 0.0
2017-Oct-23 09:28S 33°01' W 071°35'0 0.1
2017-Oct-23 08:55S 33°01' W 071°35'0 0.0
2017-Oct-23 08:28S 33°01' W 071°35'0 0.0
2017-Oct-23 07:55S 33°01' W 071°35'0 0.0
2017-Oct-23 07:28S 33°01' W 071°35'0 0.1
2017-Oct-23 06:46S 33°01' W 071°35'0 0.2
2017-Oct-23 06:22S 33°01' W 071°35'0 0.1
2017-Oct-23 05:58S 33°01' W 071°35'0 0.0
2017-Oct-23 05:13S 33°01' W 071°35'0 0.1
2017-Oct-23 04:40S 33°01' W 071°35'0 0.0
2017-Oct-23 04:10S 33°01' W 071°35'0 0.1
2017-Oct-23 03:58S 33°01' W 071°35'0 0.0
2017-Oct-23 03:16S 33°01' W 071°35'0 0.1
2017-Oct-23 02:46S 33°01' W 071°35'0 0.0
2017-Oct-23 02:25S 33°01' W 071°35'1 1.3
2017-Oct-23 01:58S 33°00' W 071°35'3 7.5
2017-Oct-23 01:30S 32°58' W 071°38'5 9.3
2017-Oct-23 01:00S 32°54' W 071°38'611.6
2017-Oct-23 00:30S 32°48' W 071°38'5 9.7
2017-Oct-23 00:00S 32°44' W 071°35'5 8.0
2017-Oct-22 23:23S 32°45' W 071°30'0 0.2
2017-Oct-22 23:00S 32°45' W 071°30'0 0.1
2017-Oct-22 22:19S 32°45' W 071°30'0 0.0
2017-Oct-22 21:34S 32°45' W 071°30'0 0.0
2017-Oct-22 21:25S 32°45' W 071°30'0 0.0
2017-Oct-22 20:58S 32°45' W 071°30'0 0.0
2017-Oct-22 20:22S 32°45' W 071°30'0 0.0
2017-Oct-22 19:55S 32°45' W 071°30'0 0.0
2017-Oct-22 19:28S 32°45' W 071°30'0 0.0
2017-Oct-22 18:58S 32°45' W 071°30'0 0.0
2017-Oct-22 18:25S 32°45' W 071°30'0 0.0
2017-Oct-22 17:07S 32°45' W 071°30'0 0.1
2017-Oct-22 16:58S 32°45' W 071°30'0 0.0
2017-Oct-22 16:28S 32°45' W 071°30'0 0.0
2017-Oct-22 15:52S 32°45' W 071°30'0 0.0
2017-Oct-22 15:28S 32°45' W 071°30'0 0.0
2017-Oct-22 14:55S 32°45' W 071°30'0 0.0
2017-Oct-22 14:25S 32°45' W 071°30'0 0.0
2017-Oct-22 13:58S 32°45' W 071°30'0 0.0
2017-Oct-22 13:25S 32°45' W 071°30'0 0.0
2017-Oct-22 12:58S 32°45' W 071°30'0 0.0
2017-Oct-22 12:28S 32°45' W 071°30'0 0.0
2017-Oct-22 11:58S 32°45' W 071°30'0 0.0
2017-Oct-22 11:28S 32°45' W 071°30'0 0.0
2017-Oct-22 10:58S 32°45' W 071°30'0 0.0
2017-Oct-22 10:28S 32°45' W 071°30'0 0.1
2017-Oct-22 09:55S 32°45' W 071°30'0 0.0
2017-Oct-22 09:28S 32°45' W 071°30'0 0.0
2017-Oct-22 08:58S 32°45' W 071°30'0 0.0
2017-Oct-22 08:28S 32°45' W 071°30'0 0.0
2017-Oct-22 07:52S 32°45' W 071°30'0 0.0
2017-Oct-22 07:28S 32°45' W 071°30'0 0.0
2017-Oct-22 06:46S 32°45' W 071°30'0 0.0
2017-Oct-22 06:28S 32°45' W 071°30'0 0.0
2017-Oct-22 05:58S 32°45' W 071°30'0 0.0
2017-Oct-22 05:28S 32°45' W 071°30'0 0.0
2017-Oct-22 04:58S 32°45' W 071°30'0 0.0
2017-Oct-22 04:28S 32°45' W 071°30'0 0.0
2017-Oct-22 03:58S 32°45' W 071°30'0 0.0
2017-Oct-22 03:28S 32°45' W 071°30'0 0.0
2017-Oct-22 02:58S 32°45' W 071°30'0 0.0
2017-Oct-22 02:28S 32°45' W 071°30'0 0.0
2017-Oct-22 01:55S 32°45' W 071°30'0 0.0
2017-Oct-22 01:28S 32°45' W 071°30'0 0.0
2017-Oct-22 00:58S 32°45' W 071°30'0 0.0
2017-Oct-22 00:28S 32°45' W 071°30'0 0.0
2017-Oct-21 23:55S 32°45' W 071°30'0 0.0
2017-Oct-21 23:28S 32°45' W 071°30'0 0.0
2017-Oct-21 22:58S 32°45' W 071°30'0 0.0
2017-Oct-21 22:28S 32°45' W 071°30'0 0.0
2017-Oct-21 21:58S 32°45' W 071°30'0 0.0
2017-Oct-21 21:28S 32°45' W 071°30'0 0.0
2017-Oct-21 20:58S 32°45' W 071°30'0 0.0
2017-Oct-21 20:25S 32°45' W 071°30'0 0.0
2017-Oct-21 19:58S 32°45' W 071°30'0 0.0
2017-Oct-21 19:28S 32°45' W 071°30'0 0.0
2017-Oct-21 18:58S 32°45' W 071°30'0 0.0
2017-Oct-21 18:28S 32°45' W 071°30'0 0.0
2017-Oct-21 17:58S 32°45' W 071°30'0 0.0
2017-Oct-21 17:28S 32°45' W 071°30'0 0.0
2017-Oct-21 16:58S 32°45' W 071°30'0 0.0
2017-Oct-21 16:28S 32°45' W 071°30'0 0.0
2017-Oct-21 15:58S 32°45' W 071°30'0 0.0
2017-Oct-21 15:25S 32°45' W 071°30'0 0.0
2017-Oct-21 14:58S 32°45' W 071°30'0 0.0
2017-Oct-21 14:28S 32°45' W 071°30'0 0.0
2017-Oct-21 13:28S 32°45' W 071°30'0 0.0
2017-Oct-21 12:58S 32°45' W 071°30'0 0.0
2017-Oct-21 12:28S 32°45' W 071°30'0 0.0
2017-Oct-21 11:58S 32°45' W 071°30'0 0.0
2017-Oct-21 11:13S 32°45' W 071°30'0 0.0
2017-Oct-21 10:55S 32°45' W 071°30'0 0.0
2017-Oct-21 10:19S 32°45' W 071°30'0 0.0
2017-Oct-20 22:43S 32°45' W 071°30'0 0.0
2017-Oct-20 22:25S 32°45' W 071°30'0 0.0
2017-Oct-20 21:58S 32°45' W 071°30'0 0.0
2017-Oct-20 21:28S 32°45' W 071°30'0 0.0
2017-Oct-20 20:58S 32°45' W 071°30'0 0.0
2017-Oct-20 20:28S 32°45' W 071°30'0 0.0
2017-Oct-20 19:19S 32°45' W 071°30'0 0.0
2017-Oct-20 18:58S 32°45' W 071°30'0 0.0
2017-Oct-20 16:07S 32°45' W 071°30'0 0.1
2017-Oct-20 15:58S 32°45' W 071°30'0 0.1
2017-Oct-20 14:13S 32°45' W 071°30'1 1.1
2017-Oct-20 13:23S 32°45' W 071°31'0 0.0
2017-Oct-20 12:35S 32°45' W 071°31'0 0.0
2017-Oct-20 12:29S 32°45' W 071°31'0 0.0
2017-Oct-20 10:56S 32°45' W 071°31'0 0.0
2017-Oct-20 10:17S 32°45' W 071°31'0 0.0
2017-Oct-20 09:59S 32°45' W 071°31'0 0.0
2017-Oct-20 09:26S 32°45' W 071°31'0 0.0
2017-Oct-20 08:59S 32°45' W 071°31'0 0.0
2017-Oct-20 06:17S 32°45' W 071°31'0 0.0
2017-Oct-20 04:59S 32°45' W 071°31'0 0.0
2017-Oct-19 23:23S 32°45' W 071°31'0 0.0
2017-Oct-19 22:56S 32°45' W 071°31'0 0.0
2017-Oct-19 22:29S 32°45' W 071°31'0 0.1
2017-Oct-19 21:59S 32°45' W 071°31'0 0.0
2017-Oct-19 21:26S 32°45' W 071°31'0 0.0
2017-Oct-19 20:59S 32°45' W 071°31'0 0.0
2017-Oct-19 20:29S 32°45' W 071°31'0 0.0
2017-Oct-19 19:59S 32°45' W 071°31'0 0.0
2017-Oct-19 19:11S 32°45' W 071°31'0 0.0
2017-Oct-19 18:59S 32°45' W 071°31'0 0.0
2017-Oct-19 17:26S 32°45' W 071°31'0 0.0
2017-Oct-19 16:11S 32°45' W 071°31'0 0.0
2017-Oct-19 15:59S 32°45' W 071°31'0 0.0
2017-Oct-19 13:11S 32°45' W 071°31'0 0.0
2017-Oct-19 12:38S 32°45' W 071°31'0 0.0
2017-Oct-19 12:23S 32°45' W 071°31'0 0.0
2017-Oct-19 11:38S 32°45' W 071°31'0 0.0
2017-Oct-19 11:08S 32°45' W 071°31'0 0.1
2017-Oct-19 10:59S 32°45' W 071°31'0 0.0
2017-Oct-19 10:29S 32°45' W 071°31'0 0.0
2017-Oct-19 09:59S 32°45' W 071°31'0 0.0
2017-Oct-19 09:14S 32°45' W 071°31'0 0.0
2017-Oct-19 08:50S 32°45' W 071°31'0 0.0
2017-Oct-19 08:29S 32°45' W 071°31'0 0.0
2017-Oct-19 07:26S 32°45' W 071°31'0 0.0
2017-Oct-19 06:53S 32°45' W 071°31'0 0.0
2017-Oct-19 06:02S 32°45' W 071°31'0 0.0
2017-Oct-19 04:29S 32°45' W 071°31'0 0.0
2017-Oct-19 01:53S 32°45' W 071°31'0 0.0
2017-Oct-19 00:53S 32°45' W 071°31'0 0.0
2017-Oct-18 23:41S 32°45' W 071°31'0 0.2
2017-Oct-18 23:29S 32°45' W 071°31'0 0.0
2017-Oct-18 22:59S 32°45' W 071°31'0 0.0
2017-Oct-18 22:29S 32°45' W 071°31'0 0.0
2017-Oct-18 21:59S 32°45' W 071°31'0 0.0
2017-Oct-18 21:29S 32°45' W 071°31'0 0.0
2017-Oct-18 20:59S 32°45' W 071°31'0 0.0
2017-Oct-18 20:26S 32°45' W 071°31'0 0.0
2017-Oct-18 19:41S 32°45' W 071°31'0 0.1
2017-Oct-18 19:23S 32°45' W 071°31'0 0.0
2017-Oct-18 18:53S 32°45' W 071°31'0 0.0
2017-Oct-18 18:29S 32°45' W 071°31'0 0.0
2017-Oct-18 17:53S 32°45' W 071°31'0 0.0
2017-Oct-18 16:11S 32°45' W 071°31'0 0.0
2017-Oct-18 15:59S 32°45' W 071°31'0 0.0
2017-Oct-18 13:35S 32°45' W 071°31'0 0.1
2017-Oct-18 13:26S 32°45' W 071°31'0 0.0
2017-Oct-18 12:32S 32°45' W 071°31'0 0.0
2017-Oct-18 12:29S 32°45' W 071°31'0 0.0
2017-Oct-18 10:35S 32°45' W 071°31'0 0.0
2017-Oct-18 10:23S 32°45' W 071°31'0 0.0
2017-Oct-18 09:50S 32°45' W 071°31'0 0.0
2017-Oct-18 09:29S 32°45' W 071°31'0 0.0
2017-Oct-18 08:14S 32°45' W 071°31'0 0.0
2017-Oct-18 06:44S 32°45' W 071°31'0 0.1
2017-Oct-18 06:29S 32°45' W 071°31'0 0.0
2017-Oct-18 05:47S 32°45' W 071°31'0 0.0
2017-Oct-18 03:41S 32°45' W 071°31'0 0.1
2017-Oct-18 03:11S 32°45' W 071°31'0 0.1
2017-Oct-18 02:59S 32°45' W 071°31'0 0.0
2017-Oct-18 02:29S 32°45' W 071°31'0 0.1
2017-Oct-18 01:08S 32°45' W 071°31'0 2.8
2017-Oct-18 00:58S 32°45' W 071°30'1 0.3
2017-Oct-17 22:51S 32°45' W 071°30'0 0.0
2017-Oct-17 22:27S 32°45' W 071°30'0 0.0
2017-Oct-17 21:54S 32°45' W 071°30'0 0.0
2017-Oct-17 21:30S 32°45' W 071°30'0 0.0
2017-Oct-17 20:24S 32°45' W 071°30'0 0.0
2017-Oct-17 16:06S 32°45' W 071°30'0 0.1
2017-Oct-17 16:00S 32°45' W 071°30'0 0.0
2017-Oct-17 10:36S 32°45' W 071°30'0 0.0
2017-Oct-17 10:27S 32°45' W 071°30'1 0.0
2017-Oct-16 12:26S 32°45' W 071°30'0 0.3
2017-Oct-16 10:58S 32°45' W 071°31'0 0.0
2017-Oct-16 08:10S 32°45' W 071°31'0 0.0
2017-Oct-15 21:34S 32°45' W 071°31'0 0.0
2017-Oct-15 21:13S 32°45' W 071°31'0 0.0
2017-Oct-15 19:43S 32°45' W 071°31'0 0.1
2017-Oct-15 19:28S 32°45' W 071°31'0 0.0
2017-Oct-15 18:58S 32°45' W 071°31'0 0.0
2017-Oct-15 18:28S 32°45' W 071°31'0 0.0
2017-Oct-15 17:49S 32°45' W 071°31'0 0.1
2017-Oct-15 17:28S 32°45' W 071°31'0 0.0
2017-Oct-15 16:58S 32°45' W 071°31'0 0.0
2017-Oct-15 15:43S 32°45' W 071°31'0 0.0
2017-Oct-15 14:46S 32°45' W 071°31'0 0.0
2017-Oct-15 13:58S 32°45' W 071°31'0 0.0
2017-Oct-15 13:28S 32°45' W 071°31'0 0.0
2017-Oct-15 12:49S 32°45' W 071°31'0 0.0
2017-Oct-15 12:28S 32°45' W 071°31'0 0.0
2017-Oct-15 11:52S 32°45' W 071°31'0 0.0
2017-Oct-15 11:25S 32°45' W 071°31'0 0.0
2017-Oct-15 10:58S 32°45' W 071°31'0 0.0
2017-Oct-15 10:28S 32°45' W 071°31'0 0.0
2017-Oct-15 08:58S 32°45' W 071°31'0 0.0
2017-Oct-15 06:07S 32°45' W 071°31'0 0.0
2017-Oct-15 05:58S 32°45' W 071°31'0 0.0
2017-Oct-14 23:01S 32°45' W 071°31'0 0.1
2017-Oct-14 22:52S 32°45' W 071°31'0 0.0
2017-Oct-14 22:22S 32°45' W 071°31'0 0.0
2017-Oct-14 21:49S 32°45' W 071°31'0 0.0
2017-Oct-14 21:28S 32°45' W 071°31'0 0.0
2017-Oct-14 20:58S 32°45' W 071°31'0 0.1
2017-Oct-14 20:28S 32°45' W 071°31'0 0.0
2017-Oct-14 19:49S 32°45' W 071°31'0 0.0
2017-Oct-14 19:22S 32°45' W 071°31'0 0.0
2017-Oct-14 18:46S 32°45' W 071°31'0 0.0
2017-Oct-14 18:28S 32°45' W 071°31'0 0.0
2017-Oct-14 17:58S 32°45' W 071°31'0 0.0
2017-Oct-14 17:22S 32°45' W 071°31'0 0.1
2017-Oct-14 16:58S 32°45' W 071°31'0 0.0
2017-Oct-14 16:25S 32°45' W 071°31'0 0.0
2017-Oct-14 15:58S 32°45' W 071°31'0 0.0
2017-Oct-14 15:25S 32°45' W 071°31'0 0.0
2017-Oct-14 14:55S 32°45' W 071°31'0 0.0
2017-Oct-14 14:22S 32°45' W 071°31'0 0.1
2017-Oct-14 13:58S 32°45' W 071°31'0 0.0
2017-Oct-14 13:28S 32°45' W 071°31'0 0.0
2017-Oct-14 12:58S 32°45' W 071°31'0 0.0
2017-Oct-14 12:28S 32°45' W 071°31'0 0.0
2017-Oct-14 11:55S 32°45' W 071°31'0 0.0
2017-Oct-14 11:28S 32°45' W 071°31'0 0.0
2017-Oct-14 10:58S 32°45' W 071°31'0 0.0
2017-Oct-14 10:28S 32°45' W 071°31'0 0.0
2017-Oct-14 09:58S 32°45' W 071°31'0 0.0
2017-Oct-14 09:28S 32°45' W 071°31'0 0.0
2017-Oct-14 08:58S 32°45' W 071°31'0 0.0
2017-Oct-14 08:28S 32°45' W 071°31'0 0.0
2017-Oct-14 07:58S 32°45' W 071°31'0 0.0
2017-Oct-14 07:22S 32°45' W 071°31'0 0.0
2017-Oct-14 06:49S 32°45' W 071°31'0 0.0
2017-Oct-14 06:28S 32°45' W 071°31'0 0.0
2017-Oct-14 05:58S 32°45' W 071°31'0 0.0
2017-Oct-14 05:28S 32°45' W 071°31'0 0.1
2017-Oct-14 04:49S 32°45' W 071°31'0 0.1
2017-Oct-14 04:28S 32°45' W 071°31'0 0.0
2017-Oct-14 03:10S 32°45' W 071°31'0 0.0
2017-Oct-14 02:58S 32°45' W 071°31'0 0.0
2017-Oct-14 01:52S 32°45' W 071°31'0 0.0
2017-Oct-14 01:28S 32°45' W 071°31'0 0.0
2017-Oct-14 00:58S 32°45' W 071°31'0 0.0
2017-Oct-14 00:04S 32°45' W 071°31'0 0.0
2017-Oct-13 22:55S 32°45' W 071°31'0 0.0
2017-Oct-13 22:28S 32°45' W 071°31'0 0.0
2017-Oct-13 21:49S 32°45' W 071°31'0 0.0
2017-Oct-13 21:22S 32°45' W 071°31'  
Track history (hours):
 
Tides and Currents Weather Stations Pressure Air Temp Water Temp Dewpoint Dewpoint Depression Visibility Wind Speed Wind Dir Waves Ship Positions

Athina L

Last reported at 2017-Oct-23 21:16 UTC. Time now 2017-Nov-18 04:41 UTC.
Position S 33°04' W 071°52'.
Warning: this ship's position is 25 days out of date.

Length 229 m; draft 7.9 m.

Type: Cargo ship. MMSI: 636015124.

Date/timePositionNaut miles runAvg speedWind from/ knotsBaromVisibWave heightAir tempDewpointWater temp
2017-Oct-23 21:16S 33°04' W 071°52'512.0
2017-Oct-23 20:48S 33°01' W 071°46'411.7
2017-Oct-23 20:27S 32°59' W 071°42'510.7
2017-Oct-23 20:00S 32°58' W 071°36'3 1.8
2017-Oct-23 18:18S 33°01' W 071°35'0 0.0
2017-Oct-23 17:03S 33°01' W 071°35'0 0.1
2017-Oct-23 16:45S 33°01' W 071°35'0 0.0
2017-Oct-23 16:24S 33°01' W 071°35'0 0.0
2017-Oct-23 16:00S 33°01' W 071°35'0 0.1
2017-Oct-23 12:13S 33°01' W 071°35'0 1.7
2017-Oct-23 11:59S 33°01' W 071°35'0 0.6
2017-Oct-23 11:07S 33°01' W 071°35'0 0.1
2017-Oct-23 10:58S 33°01' W 071°35'0 0.0
2017-Oct-23 10:28S 33°01' W 071°35'0 0.0
2017-Oct-23 09:58S 33°01' W 071°35'0 0.0
2017-Oct-23 09:28S 33°01' W 071°35'0 0.1
2017-Oct-23 08:55S 33°01' W 071°35'0 0.0
2017-Oct-23 08:28S 33°01' W 071°35'0 0.0
2017-Oct-23 07:55S 33°01' W 071°35'0 0.0
2017-Oct-23 07:28S 33°01' W 071°35'0 0.1
2017-Oct-23 06:46S 33°01' W 071°35'0 0.2
2017-Oct-23 06:22S 33°01' W 071°35'0 0.1
2017-Oct-23 05:58S 33°01' W 071°35'0 0.0
2017-Oct-23 05:13S 33°01' W 071°35'0 0.1
2017-Oct-23 04:40S 33°01' W 071°35'0 0.0
2017-Oct-23 04:10S 33°01' W 071°35'0 0.1
2017-Oct-23 03:58S 33°01' W 071°35'0 0.0
2017-Oct-23 03:16S 33°01' W 071°35'0 0.1
2017-Oct-23 02:46S 33°01' W 071°35'0 0.0
2017-Oct-23 02:25S 33°01' W 071°35'1 1.3
2017-Oct-23 01:58S 33°00' W 071°35'3 7.5
2017-Oct-23 01:30S 32°58' W 071°38'5 9.3
2017-Oct-23 01:00S 32°54' W 071°38'611.6
2017-Oct-23 00:30S 32°48' W 071°38'5 9.7
2017-Oct-23 00:00S 32°44' W 071°35'5 8.0
2017-Oct-22 23:23S 32°45' W 071°30'0 0.2
2017-Oct-22 23:00S 32°45' W 071°30'0 0.1
2017-Oct-22 22:19S 32°45' W 071°30'0 0.0
2017-Oct-22 21:34S 32°45' W 071°30'0 0.0
2017-Oct-22 21:25S 32°45' W 071°30'0 0.0
2017-Oct-22 20:58S 32°45' W 071°30'0 0.0
2017-Oct-22 20:22S 32°45' W 071°30'0 0.0
2017-Oct-22 19:55S 32°45' W 071°30'0 0.0
2017-Oct-22 19:28S 32°45' W 071°30'0 0.0
2017-Oct-22 18:58S 32°45' W 071°30'0 0.0
2017-Oct-22 18:25S 32°45' W 071°30'0 0.0
2017-Oct-22 17:07S 32°45' W 071°30'0 0.1
2017-Oct-22 16:58S 32°45' W 071°30'0 0.0
2017-Oct-22 16:28S 32°45' W 071°30'0 0.0
2017-Oct-22 15:52S 32°45' W 071°30'0 0.0
2017-Oct-22 15:28S 32°45' W 071°30'0 0.0
2017-Oct-22 14:55S 32°45' W 071°30'0 0.0
2017-Oct-22 14:25S 32°45' W 071°30'0 0.0
2017-Oct-22 13:58S 32°45' W 071°30'0 0.0
2017-Oct-22 13:25S 32°45' W 071°30'0 0.0
2017-Oct-22 12:58S 32°45' W 071°30'0 0.0
2017-Oct-22 12:28S 32°45' W 071°30'0 0.0
2017-Oct-22 11:58S 32°45' W 071°30'0 0.0
2017-Oct-22 11:28S 32°45' W 071°30'0 0.0
2017-Oct-22 10:58S 32°45' W 071°30'0 0.0
2017-Oct-22 10:28S 32°45' W 071°30'0 0.1
2017-Oct-22 09:55S 32°45' W 071°30'0 0.0
2017-Oct-22 09:28S 32°45' W 071°30'0 0.0
2017-Oct-22 08:58S 32°45' W 071°30'0 0.0
2017-Oct-22 08:28S 32°45' W 071°30'0 0.0
2017-Oct-22 07:52S 32°45' W 071°30'0 0.0
2017-Oct-22 07:28S 32°45' W 071°30'0 0.0
2017-Oct-22 06:46S 32°45' W 071°30'0 0.0
2017-Oct-22 06:28S 32°45' W 071°30'0 0.0
2017-Oct-22 05:58S 32°45' W 071°30'0 0.0
2017-Oct-22 05:28S 32°45' W 071°30'0 0.0
2017-Oct-22 04:58S 32°45' W 071°30'0 0.0
2017-Oct-22 04:28S 32°45' W 071°30'0 0.0
2017-Oct-22 03:58S 32°45' W 071°30'0 0.0
2017-Oct-22 03:28S 32°45' W 071°30'0 0.0
2017-Oct-22 02:58S 32°45' W 071°30'0 0.0
2017-Oct-22 02:28S 32°45' W 071°30'0 0.0
2017-Oct-22 01:55S 32°45' W 071°30'0 0.0
2017-Oct-22 01:28S 32°45' W 071°30'0 0.0
2017-Oct-22 00:58S 32°45' W 071°30'0 0.0
2017-Oct-22 00:28S 32°45' W 071°30'0 0.0
2017-Oct-21 23:55S 32°45' W 071°30'0 0.0
2017-Oct-21 23:28S 32°45' W 071°30'0 0.0
2017-Oct-21 22:58S 32°45' W 071°30'0 0.0
2017-Oct-21 22:28S 32°45' W 071°30'0 0.0
2017-Oct-21 21:58S 32°45' W 071°30'0 0.0
2017-Oct-21 21:28S 32°45' W 071°30'0 0.0
2017-Oct-21 20:58S 32°45' W 071°30'0 0.0
2017-Oct-21 20:25S 32°45' W 071°30'0 0.0
2017-Oct-21 19:58S 32°45' W 071°30'0 0.0
2017-Oct-21 19:28S 32°45' W 071°30'0 0.0
2017-Oct-21 18:58S 32°45' W 071°30'0 0.0
2017-Oct-21 18:28S 32°45' W 071°30'0 0.0
2017-Oct-21 17:58S 32°45' W 071°30'0 0.0
2017-Oct-21 17:28S 32°45' W 071°30'0 0.0
2017-Oct-21 16:58S 32°45' W 071°30'0 0.0
2017-Oct-21 16:28S 32°45' W 071°30'0 0.0
2017-Oct-21 15:58S 32°45' W 071°30'0 0.0
2017-Oct-21 15:25S 32°45' W 071°30'0 0.0
2017-Oct-21 14:58S 32°45' W 071°30'0 0.0
2017-Oct-21 14:28S 32°45' W 071°30'0 0.0
2017-Oct-21 13:28S 32°45' W 071°30'0 0.0
2017-Oct-21 12:58S 32°45' W 071°30'0 0.0
2017-Oct-21 12:28S 32°45' W 071°30'0 0.0
2017-Oct-21 11:58S 32°45' W 071°30'0 0.0
2017-Oct-21 11:13S 32°45' W 071°30'0 0.0
2017-Oct-21 10:55S 32°45' W 071°30'0 0.0
2017-Oct-21 10:19S 32°45' W 071°30'0 0.0
2017-Oct-20 22:43S 32°45' W 071°30'0 0.0
2017-Oct-20 22:25S 32°45' W 071°30'0 0.0
2017-Oct-20 21:58S 32°45' W 071°30'0 0.0
2017-Oct-20 21:28S 32°45' W 071°30'0 0.0
2017-Oct-20 20:58S 32°45' W 071°30'0 0.0
2017-Oct-20 20:28S 32°45' W 071°30'0 0.0
2017-Oct-20 19:19S 32°45' W 071°30'0 0.0
2017-Oct-20 18:58S 32°45' W 071°30'0 0.0
2017-Oct-20 16:07S 32°45' W 071°30'0 0.1
2017-Oct-20 15:58S 32°45' W 071°30'0 0.1
2017-Oct-20 14:13S 32°45' W 071°30'1 1.1
2017-Oct-20 13:23S 32°45' W 071°31'0 0.0
2017-Oct-20 12:35S 32°45' W 071°31'0 0.0
2017-Oct-20 12:29S 32°45' W 071°31'0 0.0
2017-Oct-20 10:56S 32°45' W 071°31'0 0.0
2017-Oct-20 10:17S 32°45' W 071°31'0 0.0
2017-Oct-20 09:59S 32°45' W 071°31'0 0.0
2017-Oct-20 09:26S 32°45' W 071°31'0 0.0
2017-Oct-20 08:59S 32°45' W 071°31'0 0.0
2017-Oct-20 06:17S 32°45' W 071°31'0 0.0
2017-Oct-20 04:59S 32°45' W 071°31'0 0.0
2017-Oct-19 23:23S 32°45' W 071°31'0 0.0
2017-Oct-19 22:56S 32°45' W 071°31'0 0.0
2017-Oct-19 22:29S 32°45' W 071°31'0 0.1
2017-Oct-19 21:59S 32°45' W 071°31'0 0.0
2017-Oct-19 21:26S 32°45' W 071°31'0 0.0
2017-Oct-19 20:59S 32°45' W 071°31'0 0.0
2017-Oct-19 20:29S 32°45' W 071°31'0 0.0
2017-Oct-19 19:59S 32°45' W 071°31'0 0.0
2017-Oct-19 19:11S 32°45' W 071°31'0 0.0
2017-Oct-19 18:59S 32°45' W 071°31'0 0.0
2017-Oct-19 17:26S 32°45' W 071°31'0 0.0
2017-Oct-19 16:11S 32°45' W 071°31'0 0.0
2017-Oct-19 15:59S 32°45' W 071°31'0 0.0
2017-Oct-19 13:11S 32°45' W 071°31'0 0.0
2017-Oct-19 12:38S 32°45' W 071°31'0 0.0
2017-Oct-19 12:23S 32°45' W 071°31'0 0.0
2017-Oct-19 11:38S 32°45' W 071°31'0 0.0
2017-Oct-19 11:08S 32°45' W 071°31'0 0.1
2017-Oct-19 10:59S 32°45' W 071°31'0 0.0
2017-Oct-19 10:29S 32°45' W 071°31'0 0.0
2017-Oct-19 09:59S 32°45' W 071°31'0 0.0
2017-Oct-19 09:14S 32°45' W 071°31'0 0.0
2017-Oct-19 08:50S 32°45' W 071°31'0 0.0
2017-Oct-19 08:29S 32°45' W 071°31'0 0.0
2017-Oct-19 07:26S 32°45' W 071°31'0 0.0
2017-Oct-19 06:53S 32°45' W 071°31'0 0.0
2017-Oct-19 06:02S 32°45' W 071°31'0 0.0
2017-Oct-19 04:29S 32°45' W 071°31'0 0.0
2017-Oct-19 01:53S 32°45' W 071°31'0 0.0
2017-Oct-19 00:53S 32°45' W 071°31'0 0.0
2017-Oct-18 23:41S 32°45' W 071°31'0 0.2
2017-Oct-18 23:29S 32°45' W 071°31'0 0.0
2017-Oct-18 22:59S 32°45' W 071°31'0 0.0
2017-Oct-18 22:29S 32°45' W 071°31'0 0.0
2017-Oct-18 21:59S 32°45' W 071°31'0 0.0
2017-Oct-18 21:29S 32°45' W 071°31'0 0.0
2017-Oct-18 20:59S 32°45' W 071°31'0 0.0
2017-Oct-18 20:26S 32°45' W 071°31'0 0.0
2017-Oct-18 19:41S 32°45' W 071°31'0 0.1
2017-Oct-18 19:23S 32°45' W 071°31'0 0.0
2017-Oct-18 18:53S 32°45' W 071°31'0 0.0
2017-Oct-18 18:29S 32°45' W 071°31'0 0.0
2017-Oct-18 17:53S 32°45' W 071°31'0 0.0
2017-Oct-18 16:11S 32°45' W 071°31'0 0.0
2017-Oct-18 15:59S 32°45' W 071°31'0 0.0
2017-Oct-18 13:35S 32°45' W 071°31'0 0.1
2017-Oct-18 13:26S 32°45' W 071°31'0 0.0
2017-Oct-18 12:32S 32°45' W 071°31'0 0.0
2017-Oct-18 12:29S 32°45' W 071°31'0 0.0
2017-Oct-18 10:35S 32°45' W 071°31'0 0.0
2017-Oct-18 10:23S 32°45' W 071°31'0 0.0
2017-Oct-18 09:50S 32°45' W 071°31'0 0.0
2017-Oct-18 09:29S 32°45' W 071°31'0 0.0
2017-Oct-18 08:14S 32°45' W 071°31'0 0.0
2017-Oct-18 06:44S 32°45' W 071°31'0 0.1
2017-Oct-18 06:29S 32°45' W 071°31'0 0.0
2017-Oct-18 05:47S 32°45' W 071°31'0 0.0
2017-Oct-18 03:41S 32°45' W 071°31'0 0.1
2017-Oct-18 03:11S 32°45' W 071°31'0 0.1
2017-Oct-18 02:59S 32°45' W 071°31'0 0.0
2017-Oct-18 02:29S 32°45' W 071°31'0 0.1
2017-Oct-18 01:08S 32°45' W 071°31'0 2.8
2017-Oct-18 00:58S 32°45' W 071°30'1 0.3
2017-Oct-17 22:51S 32°45' W 071°30'0 0.0
2017-Oct-17 22:27S 32°45' W 071°30'0 0.0
2017-Oct-17 21:54S 32°45' W 071°30'0 0.0
2017-Oct-17 21:30S 32°45' W 071°30'0 0.0
2017-Oct-17 20:24S 32°45' W 071°30'0 0.0
2017-Oct-17 16:06S 32°45' W 071°30'0 0.1
2017-Oct-17 16:00S 32°45' W 071°30'0 0.0
2017-Oct-17 10:36S 32°45' W 071°30'0 0.0
2017-Oct-17 10:27S 32°45' W 071°30'1 0.0
2017-Oct-16 12:26S 32°45' W 071°30'0 0.3
2017-Oct-16 10:58S 32°45' W 071°31'0 0.0
2017-Oct-16 08:10S 32°45' W 071°31'0 0.0
2017-Oct-15 21:34S 32°45' W 071°31'0 0.0
2017-Oct-15 21:13S 32°45' W 071°31'0 0.0
2017-Oct-15 19:43S 32°45' W 071°31'0 0.1
2017-Oct-15 19:28S 32°45' W 071°31'0 0.0
2017-Oct-15 18:58S 32°45' W 071°31'0 0.0
2017-Oct-15 18:28S 32°45' W 071°31'0 0.0
2017-Oct-15 17:49S 32°45' W 071°31'0 0.1
2017-Oct-15 17:28S 32°45' W 071°31'0 0.0
2017-Oct-15 16:58S 32°45' W 071°31'0 0.0
2017-Oct-15 15:43S 32°45' W 071°31'0 0.0
2017-Oct-15 14:46S 32°45' W 071°31'0 0.0
2017-Oct-15 13:58S 32°45' W 071°31'0 0.0
2017-Oct-15 13:28S 32°45' W 071°31'0 0.0
2017-Oct-15 12:49S 32°45' W 071°31'0 0.0
2017-Oct-15 12:28S 32°45' W 071°31'0 0.0
2017-Oct-15 11:52S 32°45' W 071°31'0 0.0
2017-Oct-15 11:25S 32°45' W 071°31'0 0.0
2017-Oct-15 10:58S 32°45' W 071°31'0 0.0
2017-Oct-15 10:28S 32°45' W 071°31'0 0.0
2017-Oct-15 08:58S 32°45' W 071°31'0 0.0
2017-Oct-15 06:07S 32°45' W 071°31'0 0.0
2017-Oct-15 05:58S 32°45' W 071°31'0 0.0
2017-Oct-14 23:01S 32°45' W 071°31'0 0.1
2017-Oct-14 22:52S 32°45' W 071°31'0 0.0
2017-Oct-14 22:22S 32°45' W 071°31'0 0.0
2017-Oct-14 21:49S 32°45' W 071°31'0 0.0
2017-Oct-14 21:28S 32°45' W 071°31'0 0.0
2017-Oct-14 20:58S 32°45' W 071°31'0 0.1
2017-Oct-14 20:28S 32°45' W 071°31'0 0.0
2017-Oct-14 19:49S 32°45' W 071°31'0 0.0
2017-Oct-14 19:22S 32°45' W 071°31'0 0.0
2017-Oct-14 18:46S 32°45' W 071°31'0 0.0
2017-Oct-14 18:28S 32°45' W 071°31'0 0.0
2017-Oct-14 17:58S 32°45' W 071°31'0 0.0
2017-Oct-14 17:22S 32°45' W 071°31'0 0.1
2017-Oct-14 16:58S 32°45' W 071°31'0 0.0
2017-Oct-14 16:25S 32°45' W 071°31'0 0.0
2017-Oct-14 15:58S 32°45' W 071°31'0 0.0
2017-Oct-14 15:25S 32°45' W 071°31'0 0.0
2017-Oct-14 14:55S 32°45' W 071°31'0 0.0
2017-Oct-14 14:22S 32°45' W 071°31'0 0.1
2017-Oct-14 13:58S 32°45' W 071°31'0 0.0
2017-Oct-14 13:28S 32°45' W 071°31'0 0.0
2017-Oct-14 12:58S 32°45' W 071°31'0 0.0
2017-Oct-14 12:28S 32°45' W 071°31'0 0.0
2017-Oct-14 11:55S 32°45' W 071°31'0 0.0
2017-Oct-14 11:28S 32°45' W 071°31'0 0.0
2017-Oct-14 10:58S 32°45' W 071°31'0 0.0
2017-Oct-14 10:28S 32°45' W 071°31'0 0.0
2017-Oct-14 09:58S 32°45' W 071°31'0 0.0
2017-Oct-14 09:28S 32°45' W 071°31'0 0.0
2017-Oct-14 08:58S 32°45' W 071°31'0 0.0
2017-Oct-14 08:28S 32°45' W 071°31'0 0.0
2017-Oct-14 07:58S 32°45' W 071°31'0 0.0
2017-Oct-14 07:22S 32°45' W 071°31'0 0.0
2017-Oct-14 06:49S 32°45' W 071°31'0 0.0
2017-Oct-14 06:28S 32°45' W 071°31'0 0.0
2017-Oct-14 05:58S 32°45' W 071°31'0 0.0
2017-Oct-14 05:28S 32°45' W 071°31'0 0.1
2017-Oct-14 04:49S 32°45' W 071°31'0 0.1
2017-Oct-14 04:28S 32°45' W 071°31'0 0.0
2017-Oct-14 03:10S 32°45' W 071°31'0 0.0
2017-Oct-14 02:58S 32°45' W 071°31'0 0.0
2017-Oct-14 01:52S 32°45' W 071°31'0 0.0
2017-Oct-14 01:28S 32°45' W 071°31'0 0.0
2017-Oct-14 00:58S 32°45' W 071°31'0 0.0
2017-Oct-14 00:04S 32°45' W 071°31'0 0.0
2017-Oct-13 22:55S 32°45' W 071°31'0 0.0
2017-Oct-13 22:28S 32°45' W 071°31'0 0.0
2017-Oct-13 21:49S 32°45' W 071°31'0 0.0
2017-Oct-13 21:22S 32°45' W 071°31'  

Dump ship's entire track history